Time;durP1;ratioP1;P1;durP2;ratioP2;P2;SDS_P1;SDS_P2;PMS_P1;PMS_P2;Temp;Humidity;BMP_temperature;BMP_pressure;BME280_temperature;BME280_humidity;BME280_pressure;Samples;Min_cycle;Max_cycle;Signal;HPM_P1;HPM_P2
2022/08/17 00:01:07;;;;;;;4.60;2.30;;;;;;;22.90;43.59;93625.81;5018751;28;20033;-82
2022/08/17 00:03:37;;;;;;;4.40;2.55;;;;;;;22.84;43.88;93621.94;5017304;28;20045;-79
2022/08/17 00:06:21;;;;;;;3.00;2.33;;;;;;;22.84;42.08;93621.94;5016369;28;20014;-80
2022/08/17 00:08:50;;;;;;;5.10;2.13;;;;;;;22.73;42.73;93632.81;5012579;28;20067;-79
2022/08/17 00:11:34;;;;;;;4.10;2.30;;;;;;;22.58;43.11;93593.41;5018772;28;20112;-81
2022/08/17 00:14:05;;;;;;;2.70;2.50;;;;;;;22.37;42.06;93606.25;5018346;28;20549;-80
2022/08/17 00:16:37;;;;;;;3.97;2.60;;;;;;;22.37;43.66;93611.69;5034434;28;20025;-81
2022/08/17 00:19:07;;;;;;;3.50;2.03;;;;;;;22.68;43.28;93629.78;5021511;28;20117;-80
2022/08/17 00:21:34;;;;;;;4.45;2.33;;;;;;;22.86;43.74;93630.47;5019928;28;20562;-80
2022/08/17 00:24:00;;;;;;;3.20;2.78;;;;;;;22.90;43.48;93606.81;5020263;28;20388;-80
2022/08/17 00:26:26;;;;;;;3.05;2.38;;;;;;;22.87;43.38;93585.94;5021470;28;20048;-80
2022/08/17 00:28:53;;;;;;;3.72;2.42;;;;;;;23.15;42.87;93626.44;5023228;28;20025;-80
2022/08/17 00:31:19;;;;;;;4.95;2.97;;;;;;;23.09;43.34;93621.81;5021029;28;20029;-80
2022/08/17 00:33:44;;;;;;;6.28;2.55;;;;;;;22.92;43.55;93599.06;5021626;28;20608;-79
2022/08/17 00:36:12;;;;;;;5.32;2.45;;;;;;;23.15;43.51;93631.09;5020740;28;20029;-81
2022/08/17 00:38:38;;;;;;;4.30;2.92;;;;;;;22.98;43.83;93600.19;5033697;28;20029;-80
2022/08/17 00:41:16;;;;;;;7.03;3.00;;;;;;;22.64;43.91;93580.19;5021114;28;20037;-80
2022/08/17 00:43:44;;;;;;;2.67;2.22;;;;;;;22.94;44.48;93633.91;5019308;28;20438;-79
2022/08/17 00:46:13;;;;;;;3.05;2.75;;;;;;;22.84;44.63;93615.72;5019945;28;20033;-80
2022/08/17 00:48:39;;;;;;;3.10;1.88;;;;;;;22.71;44.55;93596.44;5030130;28;20079;-81
2022/08/17 00:51:08;;;;;;;4.72;2.63;;;;;;;22.83;44.50;93614.22;5022899;28;20029;-80
2022/08/17 00:53:39;;;;;;;3.45;2.00;;;;;;;22.55;44.54;93585.28;5020748;28;20798;-80
2022/08/17 00:56:11;;;;;;;2.78;2.53;;;;;;;22.60;44.86;93609.25;5020755;28;20038;-79
2022/08/17 00:58:37;;;;;;;4.68;2.40;;;;;;;22.52;44.79;93599.63;5021768;28;20457;-79
2022/08/17 01:01:05;;;;;;;3.75;2.88;;;;;;;22.61;45.10;93618.94;5019474;28;20033;-79
2022/08/17 01:03:32;;;;;;;3.75;2.30;;;;;;;22.27;45.54;93584.25;5019858;28;20025;-80
2022/08/17 01:06:01;;;;;;;3.40;2.10;;;;;;;22.16;45.32;93578.03;5020750;28;20033;-80
2022/08/17 01:08:29;;;;;;;7.65;2.55;;;;;;;22.16;45.31;93586.16;5020332;28;20033;-80
2022/08/17 01:11:00;;;;;;;5.40;2.80;;;;;;;22.22;45.79;93587.34;5019885;28;20499;-80
2022/08/17 01:13:29;;;;;;;3.72;2.30;;;;;;;22.44;45.76;93619.78;5020242;28;20472;-79
2022/08/17 01:16:06;;;;;;;5.05;2.70;;;;;;;22.20;45.78;93583.44;5018604;28;20036;-80
2022/08/17 01:18:32;;;;;;;3.25;2.28;;;;;;;22.24;45.70;93598.53;5019912;28;20036;-80
2022/08/17 01:21:03;;;;;;;5.30;2.70;;;;;;;22.14;45.44;93596.63;5019103;28;20070;-81
2022/08/17 01:23:29;;;;;;;2.55;2.03;;;;;;;22.22;45.52;93619.84;5013728;28;20056;-79
2022/08/17 01:25:57;;;;;;;3.83;2.40;;;;;;;22.10;46.01;93603.97;5020070;28;20108;-79
2022/08/17 01:28:27;;;;;;;8.60;2.72;;;;;;;21.64;45.22;93538.34;5017409;28;20052;-79
2022/08/17 01:30:54;;;;;;;2.55;2.33;;;;;;;21.90;45.37;93591.28;5034688;28;20033;-81
2022/08/17 01:33:20;;;;;;;4.55;3.17;;;;;;;21.88;45.61;93588.94;5020540;28;20108;-82
2022/08/17 01:35:45;;;;;;;3.40;2.95;;;;;;;21.76;45.42;93570.41;5026119;28;20129;-81
2022/08/17 01:38:11;;;;;;;3.78;2.30;;;;;;;21.99;45.73;93610.59;5035875;28;20567;-81
2022/08/17 01:40:47;;;;;;;3.45;2.40;;;;;;;21.97;46.03;93608.28;5020588;28;20029;-81
2022/08/17 01:43:20;;;;;;;4.50;2.63;;;;;;;21.94;45.74;93611.75;5020975;28;20068;-81
2022/08/17 01:45:48;;;;;;;2.50;2.30;;;;;;;21.71;45.58;93579.69;5019467;28;20028;-82
2022/08/17 01:48:13;;;;;;;3.42;1.95;;;;;;;21.81;45.80;93599.78;5020758;28;20448;-81
2022/08/17 01:50:43;;;;;;;3.55;1.70;;;;;;;21.78;45.98;93609.47;5021576;28;20032;-82
2022/08/17 01:53:14;;;;;;;2.72;2.13;;;;;;;21.65;45.84;93589.38;5019874;28;20068;-82
2022/08/17 01:55:46;;;;;;;4.15;2.15;;;;;;;21.77;45.90;93609.84;5012320;28;20025;-80
2022/08/17 01:58:12;;;;;;;2.90;2.22;;;;;;;21.38;45.59;93570.03;5018893;28;20025;-80
2022/08/17 02:00:39;;;;;;;5.78;2.83;;;;;;;21.42;46.19;93587.03;5034568;28;20529;-81
2022/08/17 02:03:07;;;;;;;5.80;1.98;;;;;;;21.46;46.48;93592.47;5018598;28;20624;-80
2022/08/17 02:05:34;;;;;;;2.90;2.55;;;;;;;21.54;46.57;93612.16;5021725;28;20029;-80
2022/08/17 02:08:00;;;;;;;3.80;2.22;;;;;;;21.32;46.53;93587.78;5021303;28;20045;-81
2022/08/17 02:10:27;;;;;;;4.97;3.22;;;;;;;21.41;46.87;93623.34;5020639;28;20025;-80
2022/08/17 02:12:53;;;;;;;3.70;2.25;;;;;;;21.22;46.76;93599.38;5021142;28;20024;-80
2022/08/17 02:15:19;;;;;;;4.15;2.45;;;;;;;21.29;47.16;93618.31;5020320;28;20022;-81
2022/08/17 02:17:46;;;;;;;5.80;2.65;;;;;;;21.31;47.13;93626.84;5019303;28;20022;-81
2022/08/17 02:20:12;;;;;;;3.08;2.78;;;;;;;21.30;47.39;93630.69;5019432;28;20033;-81
2022/08/17 02:22:39;;;;;;;3.47;2.70;;;;;;;21.27;47.64;93623.34;5018508;28;20432;-80
2022/08/17 02:25:08;;;;;;;3.33;2.67;;;;;;;21.27;47.78;93625.25;5018788;28;20032;-80
2022/08/17 02:27:35;;;;;;;5.97;3.13;;;;;;;21.18;48.06;93617.53;5019297;28;20877;-81
2022/08/17 02:30:03;;;;;;;5.78;3.10;;;;;;;21.11;48.11;93616.75;5018154;28;20032;-80
2022/08/17 02:32:28;;;;;;;4.40;2.90;;;;;;;20.69;48.39;93544.44;5018924;28;20473;-81
2022/08/17 02:34:59;;;;;;;3.97;3.22;;;;;;;21.17;48.44;93621.38;5018077;28;20033;-81
2022/08/17 02:37:27;;;;;;;3.58;3.20;;;;;;;21.04;49.12;93612.09;5018588;28;20032;-80
2022/08/17 02:39:55;;;;;;;5.80;3.33;;;;;;;20.92;49.10;93593.56;5017652;28;20107;-82
2022/08/17 02:42:26;;;;;;;5.93;4.50;;;;;;;21.08;49.17;93615.59;5019307;28;20540;-81
2022/08/17 02:44:52;;;;;;;4.05;3.30;;;;;;;21.01;49.55;93616.38;5028166;28;20389;-81
2022/08/17 02:47:17;;;;;;;4.82;3.60;;;;;;;20.90;49.52;93606.69;5020056;28;20026;-81
2022/08/17 02:49:43;;;;;;;6.13;3.45;;;;;;;20.87;49.71;93610.94;5019450;28;20547;-82
2022/08/17 02:52:08;;;;;;;4.38;3.22;;;;;;;20.63;49.47;93571.03;5018961;28;20072;-80
2022/08/17 02:54:34;;;;;;;4.75;3.58;;;;;;;20.46;49.42;93550.94;5018097;28;20033;-81
2022/08/17 02:57:02;;;;;;;4.32;3.28;;;;;;;20.83;49.18;93623.59;5017049;28;20071;-80
2022/08/17 02:59:27;;;;;;;6.55;3.33;;;;;;;20.83;49.06;93620.13;5019090;28;20036;-81
2022/08/17 03:01:53;;;;;;;3.45;2.90;;;;;;;20.49;49.39;93579.88;5017463;28;20026;-80
2022/08/17 03:04:18;;;;;;;3.97;2.65;;;;;;;20.79;49.05;93628.22;5017102;28;20025;-81
2022/08/17 03:06:44;;;;;;;6.50;3.63;;;;;;;20.57;49.06;93595.00;5019622;28;20187;-82
2022/08/17 03:09:09;;;;;;;7.85;3.38;;;;;;;20.64;49.35;93615.06;5017323;28;20052;-81
2022/08/17 03:11:34;;;;;;;4.60;3.15;;;;;;;20.44;49.79;93577.56;5017969;28;20079;-81
2022/08/17 03:14:00;;;;;;;4.55;3.47;;;;;;;20.78;49.58;93634.00;5018870;28;20079;-82
2022/08/17 03:16:25;;;;;;;8.40;2.75;;;;;;;20.45;49.45;93595.31;5018352;28;20025;-81
2022/08/17 03:18:51;;;;;;;3.65;3.17;;;;;;;20.11;49.52;93570.44;5019197;28;20056;-80
2022/08/17 03:21:16;;;;;;;5.40;2.55;;;;;;;20.36;49.50;93611.09;5018966;28;20120;-82
2022/08/17 03:23:41;;;;;;;5.70;3.20;;;;;;;20.13;49.79;93595.16;5016852;28;20021;-80
2022/08/17 03:26:09;;;;;;;5.40;3.20;;;;;;;20.43;49.84;93637.38;5018823;28;20057;-80
2022/08/17 03:28:35;;;;;;;6.50;2.92;;;;;;;20.50;50.02;93648.97;5016070;28;20796;-81
2022/08/17 03:31:01;;;;;;;5.65;3.50;;;;;;;20.55;49.97;93645.91;5017981;28;20029;-81
2022/08/17 03:33:27;;;;;;;4.57;3.50;;;;;;;20.37;50.28;93628.09;5019422;28;20029;-81
2022/08/17 03:35:53;;;;;;;5.43;4.07;;;;;;;20.26;50.49;93622.63;5018227;28;20029;-81
2022/08/17 03:38:19;;;;;;;5.85;3.50;;;;;;;20.40;50.45;93641.59;5017570;28;20040;-81
2022/08/17 03:40:47;;;;;;;7.75;3.15;;;;;;;20.23;50.63;93623.41;5018171;28;20030;-80
2022/08/17 03:43:12;;;;;;;4.72;3.28;;;;;;;20.05;50.79;93596.25;5017424;28;20029;-82
2022/08/17 03:56:46;;;;;;;5.40;3.70;;;;;;;20.08;51.14;93621.75;5018053;28;20029;-80
2022/08/17 03:59:17;;;;;;;10.73;3.60;;;;;;;20.15;51.38;93624.47;5017666;28;20034;-81
2022/08/17 04:01:44;;;;;;;14.15;5.15;;;;;;;20.39;51.28;93658.16;5018995;28;20561;-81
2022/08/17 04:04:11;;;;;;;7.97;4.35;;;;;;;20.39;51.71;93658.94;5019772;28;20279;-81
2022/08/17 04:06:36;;;;;;;5.13;3.42;;;;;;;20.26;51.40;93638.81;5015575;28;20056;-81
2022/08/17 04:09:02;;;;;;;4.78;3.17;;;;;;;19.99;51.60;93597.00;5018065;28;20037;-82
2022/08/17 04:11:28;;;;;;;5.45;3.60;;;;;;;20.42;51.87;93652.03;5017187;28;20075;-80
2022/08/17 04:13:53;;;;;;;5.47;3.30;;;;;;;20.11;51.64;93610.94;5017612;28;20682;-81
2022/08/17 04:16:19;;;;;;;6.75;3.30;;;;;;;20.53;51.89;93669.06;5033072;28;20032;-82
2022/08/17 04:18:44;;;;;;;5.80;3.58;;;;;;;20.56;51.81;93673.69;5017857;28;20393;-81
2022/08/17 04:21:10;;;;;;;6.28;4.13;;;;;;;20.30;51.74;93623.41;5018280;28;20096;-80
2022/08/17 04:23:36;;;;;;;5.05;4.10;;;;;;;20.39;51.75;93626.53;5017699;28;20018;-80
2022/08/17 04:26:02;;;;;;;6.68;3.85;;;;;;;20.73;51.73;93666.84;5018601;28;20022;-81
2022/08/17 04:28:28;;;;;;;6.28;4.85;;;;;;;20.69;51.58;93644.41;5017130;28;20026;-82
2022/08/17 04:30:54;;;;;;;5.97;4.60;;;;;;;20.58;51.72;93623.53;5017690;28;20152;-81
2022/08/17 04:33:23;;;;;;;4.97;3.65;;;;;;;20.88;51.69;93652.22;5017863;28;20502;-80
2022/08/17 04:35:53;;;;;;;7.40;4.43;;;;;;;21.13;51.17;93684.75;5031983;28;20025;-80
2022/08/17 04:38:30;;;;;;;7.93;5.63;;;;;;;21.01;50.95;93658.84;5019191;28;20024;-81
2022/08/17 04:43:42;;;;;;;;;;;;;;;20.94;51.33;93688.53;5018965;28;20134;-80
2022/08/17 04:46:10;;;;;;;7.25;5.30;;;;;;;20.80;51.85;93683.84;5017163;28;20392;-80
2022/08/17 04:48:39;;;;;;;12.20;5.95;;;;;;;20.94;52.57;93691.25;5014711;28;20107;-81
2022/08/17 04:51:26;;;;;;;6.55;5.07;;;;;;;20.87;51.96;93672.31;5015813;28;20124;-81
2022/08/17 04:53:58;;;;;;;6.80;5.10;;;;;;;21.27;52.03;93701.78;5011170;28;20061;-81
2022/08/17 04:56:26;;;;;;;7.40;5.28;;;;;;;21.14;51.46;93670.84;5018064;28;20057;-80
2022/08/17 04:58:54;;;;;;;10.70;5.80;;;;;;;21.41;51.17;93693.69;5018686;28;20021;-80
2022/08/17 05:01:22;;;;;;;6.47;5.13;;;;;;;21.08;51.34;93707.50;5018673;28;20052;-80
2022/08/17 05:03:47;;;;;;;8.48;5.47;;;;;;;21.33;51.25;93700.25;5020722;28;20137;-80
2022/08/17 05:06:13;;;;;;;9.10;6.10;;;;;;;21.31;50.89;93699.09;5021538;28;20417;-81
2022/08/17 05:08:38;;;;;;;14.90;6.97;;;;;;;21.35;50.52;93689.06;5020877;28;20071;-80
2022/08/17 05:11:04;;;;;;;8.43;5.53;;;;;;;21.25;50.67;93665.47;5021780;28;20100;-81
2022/08/17 05:13:30;;;;;;;13.73;6.25;;;;;;;21.08;50.61;93683.19;5020526;28;20596;-81
2022/08/17 05:15:59;;;;;;;7.55;5.97;;;;;;;21.28;50.49;93702.56;5022507;28;20025;-81
2022/08/17 05:18:27;;;;;;;9.18;6.03;;;;;;;21.22;50.05;93672.41;5020008;28;20122;-81
2022/08/17 05:20:53;;;;;;;7.53;5.43;;;;;;;21.09;50.57;93665.81;5018331;28;20079;-81
2022/08/17 05:23:20;;;;;;;9.82;6.18;;;;;;;20.87;50.76;93642.59;5021104;28;20017;-81
2022/08/17 05:25:48;;;;;;;6.75;5.82;;;;;;;21.25;51.16;93704.09;5035815;28;20683;-80
2022/08/17 05:28:16;;;;;;;7.45;5.72;;;;;;;21.19;51.22;93711.03;5021450;28;20021;-81
2022/08/17 05:30:43;;;;;;;12.13;6.18;;;;;;;21.21;51.16;93718.78;5019346;28;20117;-82
2022/08/17 05:33:12;;;;;;;9.98;6.40;;;;;;;20.65;51.23;93649.03;5018819;28;20547;-81
2022/08/17 05:35:42;;;;;;;10.90;7.22;;;;;;;20.81;52.56;93706.25;5019433;28;20136;-80
2022/08/17 05:38:08;;;;;;;8.70;5.43;;;;;;;20.76;52.96;93709.31;5016933;28;20033;-80
2022/08/17 05:40:35;;;;;;;11.05;6.45;;;;;;;21.24;52.03;93707.97;5020976;28;21304;-80
2022/08/17 05:43:25;;;;;;;13.93;6.80;;;;;;;21.04;51.33;93655.38;5033076;28;20040;-80
2022/08/17 05:46:04;;;;;;;9.45;5.88;;;;;;;21.71;51.11;93714.22;5017992;28;20340;-80
2022/08/17 05:48:38;;;;;;;13.32;5.75;;;;;;;21.79;50.81;93699.56;5019673;28;20029;-80
2022/08/17 05:51:29;;;;;;;14.90;7.45;;;;;;;22.10;49.95;93714.25;5021800;28;20037;-79
2022/08/17 05:54:15;;;;;;;8.73;5.85;;;;;;;22.20;49.80;93708.03;5018907;28;20059;-79
2022/08/17 05:57:12;;;;;;;12.57;6.30;;;;;;;22.18;49.03;93708.44;5020585;28;20265;-80
2022/08/17 05:59:50;;;;;;;11.10;5.80;;;;;;;22.28;49.41;93710.41;5027917;28;20031;-79
2022/08/17 06:02:22;;;;;;;9.98;6.18;;;;;;;22.38;49.29;93705.34;5019588;28;20033;-80
2022/08/17 06:05:15;;;;;;;8.55;5.55;;;;;;;22.15;49.40;93709.22;5018885;28;20029;-80
2022/08/17 06:07:52;;;;;;;9.60;6.53;;;;;;;22.33;49.19;93695.69;5012568;28;20033;-80
2022/08/17 06:10:29;;;;;;;12.13;6.28;;;;;;;22.32;49.35;93709.59;5018585;28;20078;-80
2022/08/17 06:13:03;;;;;;;8.95;6.25;;;;;;;22.19;49.19;93704.56;5017294;28;20036;-79
2022/08/17 06:15:40;;;;;;;8.85;6.20;;;;;;;22.52;49.07;93713.44;5020440;28;20163;-81
2022/08/17 06:18:09;;;;;;;12.00;5.80;;;;;;;22.58;48.57;93682.84;5020504;28;20104;-78
2022/08/17 06:20:45;;;;;;;10.02;6.30;;;;;;;22.67;48.50;93699.47;5019168;28;20444;-79
2022/08/17 06:23:24;;;;;;;14.38;6.05;;;;;;;22.75;48.09;93694.78;5020024;28;20056;-79
2022/08/17 06:25:55;;;;;;;11.80;6.18;;;;;;;22.64;48.11;93699.47;5019942;28;20030;-78
2022/08/17 06:28:30;;;;;;;8.65;5.30;;;;;;;22.34;48.83;93699.91;5019811;28;20047;-78
2022/08/17 06:31:05;;;;;;;12.02;6.60;;;;;;;22.74;48.78;93710.28;5017245;28;20037;-80
2022/08/17 06:33:35;;;;;;;15.35;6.90;;;;;;;22.39;48.23;93715.03;5019137;28;20036;-79
2022/08/17 06:36:31;;;;;;;9.35;6.72;;;;;;;22.15;49.41;93682.13;5018151;28;20029;-78
2022/08/17 06:39:18;;;;;;;11.05;6.65;;;;;;;22.80;48.53;93712.56;5020063;28;20037;-81
2022/08/17 06:41:56;;;;;;;14.45;6.75;;;;;;;23.03;48.43;93710.97;5018580;28;20468;-80
2022/08/17 06:44:49;;;;;;;11.63;7.40;;;;;;;23.00;47.26;93698.19;5017115;28;20025;-80
2022/08/17 06:47:41;;;;;;;14.93;7.63;;;;;;;22.97;47.56;93711.78;5017144;28;20041;-81
2022/08/17 06:50:34;;;;;;;14.82;7.35;;;;;;;22.89;47.51;93721.88;5018789;28;20116;-80
2022/08/17 06:53:18;;;;;;;12.05;6.53;;;;;;;22.95;47.76;93676.91;5015711;28;20369;-81
2022/08/17 06:55:53;;;;;;;13.57;6.90;;;;;;;23.38;47.71;93706.53;5016676;28;20033;-80
2022/08/17 06:58:22;;;;;;;13.30;7.20;;;;;;;23.49;47.05;93707.28;5017190;28;20497;-81
2022/08/17 07:00:50;;;;;;;10.30;6.15;;;;;;;23.03;47.50;93699.34;5016357;28;20037;-80
2022/08/17 07:03:48;;;;;;;10.85;6.15;;;;;;;23.17;46.95;93710.91;5012920;28;20087;-81
2022/08/17 07:06:18;;;;;;;9.63;6.50;;;;;;;23.27;47.17;93713.97;5012077;28;20026;-82
2022/08/17 07:08:54;;;;;;;10.63;5.88;;;;;;;23.37;46.71;93704.97;5027040;28;20025;-81
2022/08/17 07:11:37;;;;;;;9.23;6.22;;;;;;;23.38;47.77;93710.03;5032504;28;20393;-81
2022/08/17 07:14:15;;;;;;;11.70;6.53;;;;;;;23.73;47.41;93711.00;5016365;28;20064;-80
2022/08/17 07:16:45;;;;;;;10.35;6.50;;;;;;;23.99;46.77;93705.75;5010234;28;20025;-81
2022/08/17 07:19:10;;;;;;;8.90;5.28;;;;;;;23.48;46.35;93651.41;5009851;28;20040;-80
2022/08/17 07:21:46;;;;;;;5.97;4.78;;;;;;;23.43;46.93;93679.75;5009224;28;20384;-82
2022/08/17 07:24:23;;;;;;;12.63;5.68;;;;;;;23.78;46.25;93705.91;5015312;28;20026;-80
2022/08/17 07:27:22;;;;;;;9.43;5.22;;;;;;;23.95;46.59;93710.41;5013993;28;20393;-78
2022/08/17 07:29:55;;;;;;;11.23;5.70;;;;;;;24.20;45.39;93704.06;5014456;28;20549;-81
2022/08/17 07:32:34;;;;;;;7.40;4.75;;;;;;;24.15;45.95;93702.53;5014260;28;20029;-82
2022/08/17 07:35:13;;;;;;;8.65;5.05;;;;;;;24.04;46.20;93647.50;5013926;28;20040;-81
2022/08/17 07:37:41;;;;;;;9.18;4.85;;;;;;;24.65;45.17;93705.53;5015134;28;20492;-81
2022/08/17 07:41:03;;;;;;;6.57;4.50;;;;;;;24.39;43.35;93706.22;5016545;28;20374;-81
2022/08/17 07:43:35;;;;;;;9.13;4.43;;;;;;;24.05;43.96;93708.03;5007535;28;20124;-81
2022/08/17 07:49:16;;;;;;;13.93;4.15;;;;;;;23.66;44.99;93676.50;5017331;28;20116;-82
2022/08/17 07:51:41;;;;;;;6.22;4.32;;;;;;;23.92;46.06;93705.81;5012883;28;20214;-81
2022/08/17 07:54:21;;;;;;;9.50;5.47;;;;;;;23.93;45.67;93695.72;5012841;28;20041;-81
2022/08/17 07:56:48;;;;;;;7.95;5.13;;;;;;;23.84;45.51;93703.56;5011135;28;20436;-80
2022/08/17 07:59:26;;;;;;;6.90;5.05;;;;;;;23.94;45.29;93700.75;5016239;28;20037;-81
2022/08/17 08:02:04;;;;;;;6.13;4.68;;;;;;;23.96;44.58;93695.69;5012024;28;20405;-81
2022/08/17 08:04:41;;;;;;;7.80;5.03;;;;;;;23.95;44.33;93677.84;5017399;28;20029;-81
2022/08/17 08:07:23;;;;;;;8.85;4.70;;;;;;;23.57;45.73;93670.75;5014668;28;20033;-81
2022/08/17 08:10:00;;;;;;;6.07;4.85;;;;;;;23.79;44.10;93695.81;5016469;28;20333;-79
2022/08/17 08:12:37;;;;;;;6.85;4.82;;;;;;;23.78;43.96;93699.72;5015434;28;20021;-80
2022/08/17 08:15:17;;;;;;;12.88;4.97;;;;;;;23.68;44.72;93698.63;5030156;28;20030;-80
2022/08/17 08:17:56;;;;;;;7.05;5.10;;;;;;;23.86;46.27;93696.53;5012974;28;20082;-80
2022/08/17 08:20:30;;;;;;;6.80;4.20;;;;;;;24.00;44.43;93684.81;5012271;28;20032;-80
2022/08/17 08:23:10;;;;;;;6.30;4.03;;;;;;;24.01;44.01;93695.25;5014420;28;20460;-81
2022/08/17 08:25:41;;;;;;;6.05;4.47;;;;;;;23.93;44.34;93685.63;5012954;28;20490;-82
2022/08/17 08:28:26;;;;;;;6.18;4.10;;;;;;;24.09;44.41;93693.25;5014053;28;20079;-79
2022/08/17 08:31:06;;;;;;;5.47;3.60;;;;;;;24.07;43.63;93684.72;5012450;28;20477;-79
2022/08/17 08:33:43;;;;;;;6.93;3.28;;;;;;;24.04;44.17;93684.75;5014457;28;20065;-80
2022/08/17 08:36:36;;;;;;;7.28;3.92;;;;;;;24.09;43.92;93693.25;5006225;28;20029;-79
2022/08/17 08:39:23;;;;;;;5.13;3.03;;;;;;;23.84;42.78;93679.88;5011389;28;20295;-79
2022/08/17 08:42:28;;;;;;;5.22;4.40;;;;;;;23.68;42.91;93690.47;5017659;28;20029;-80
2022/08/17 08:45:42;;;;;;;5.80;3.67;;;;;;;23.66;42.55;93638.50;5016727;28;20025;-79
2022/08/17 08:48:21;;;;;;;4.47;3.08;;;;;;;23.77;42.14;93682.63;5020065;28;20523;-80
2022/08/17 08:51:11;;;;;;;5.22;2.58;;;;;;;23.72;41.03;93680.34;5017581;28;20033;-80
2022/08/17 08:54:01;;;;;;;6.95;3.10;;;;;;;23.85;42.08;93680.66;5017897;28;20103;-79
2022/08/17 08:56:41;;;;;;;3.67;3.08;;;;;;;23.80;42.67;93660.13;5033852;28;20512;-80
2022/08/17 08:59:26;;;;;;;4.97;1.80;;;;;;;23.81;38.63;93675.22;5009710;28;20025;-79
2022/08/17 09:02:10;;;;;;;3.83;2.05;;;;;;;24.00;38.90;93680.13;5011222;28;20040;-79
2022/08/17 09:04:48;;;;;;;4.03;2.23;;;;;;;23.63;38.50;93655.59;5033052;28;20173;-80
2022/08/17 09:07:37;;;;;;;2.35;2.15;;;;;;;23.60;38.93;93656.41;5016727;28;20675;-79
2022/08/17 09:10:06;;;;;;;4.88;2.20;;;;;;;23.88;38.42;93680.63;5033470;28;21584;-78
2022/08/17 09:12:32;;;;;;;4.45;2.00;;;;;;;23.81;38.79;93680.66;5017251;28;20366;-80
2022/08/17 09:15:08;;;;;;;6.38;1.98;;;;;;;23.42;39.12;93618.50;5018758;28;20022;-78
2022/08/17 09:17:46;;;;;;;4.20;2.75;;;;;;;23.87;39.16;93681.00;5019090;28;20122;-79
2022/08/17 09:20:26;;;;;;;2.60;2.15;;;;;;;23.77;39.30;93674.50;5016701;28;20029;-78
2022/08/17 09:23:02;;;;;;;2.88;2.30;;;;;;;23.54;39.77;93636.28;5020265;28;20032;-78
2022/08/17 09:25:31;;;;;;;3.30;2.20;;;;;;;23.78;39.20;93678.75;5018039;28;20023;-79
2022/08/17 09:27:59;;;;;;;3.88;2.40;;;;;;;23.90;39.46;93678.28;5020961;28;20032;-80
2022/08/17 09:30:35;;;;;;;5.47;2.20;;;;;;;23.81;38.91;93661.66;5019819;28;20029;-79
2022/08/17 09:33:05;;;;;;;4.82;2.47;;;;;;;24.12;39.25;93683.53;5018066;28;20035;-79
2022/08/17 09:35:43;;;;;;;4.80;2.60;;;;;;;23.99;39.30;93680.53;5018774;28;20022;-79
2022/08/17 09:38:32;;;;;;;4.57;2.90;;;;;;;23.88;38.75;93644.53;5017912;28;20116;-78
2022/08/17 09:41:08;;;;;;;3.88;2.72;;;;;;;23.81;38.75;93650.78;5026870;28;20606;-79
2022/08/17 09:43:52;;;;;;;4.63;2.80;;;;;;;23.81;40.01;93637.22;5017730;28;20034;-78
2022/08/17 09:46:24;;;;;;;5.22;2.40;;;;;;;23.94;38.26;93676.31;5020551;28;20068;-82
2022/08/17 09:49:21;;;;;;;4.07;2.20;;;;;;;23.93;39.22;93674.75;5018311;28;20033;-81
2022/08/17 09:51:53;;;;;;;6.45;2.20;;;;;;;23.75;38.97;93641.56;5017747;28;20296;-78
2022/08/17 09:54:28;;;;;;;3.88;2.47;;;;;;;24.21;39.85;93673.75;5014823;28;20038;-80
2022/08/17 14:30:34;;;;;;;4.93;3.33;;;;;;;26.98;33.06;93564.09;4880171;28;20222;-80
2022/08/17 14:33:01;;;;;;;6.13;3.80;;;;;;;27.16;32.76;93582.84;4946845;28;20031;-79
2022/08/17 14:35:28;;;;;;;4.32;3.65;;;;;;;27.35;32.97;93584.72;4952582;28;20080;-79
2022/08/17 14:37:54;;;;;;;5.25;3.25;;;;;;;27.31;33.25;93593.00;4947636;28;20039;-80
2022/08/17 14:40:26;;;;;;;5.43;3.22;;;;;;;27.13;33.38;93572.78;4951118;28;20027;-80
2022/08/17 14:42:53;;;;;;;4.10;3.67;;;;;;;27.39;32.27;93590.88;4941949;28;20652;-80
2022/08/17 14:45:19;;;;;;;8.55;4.32;;;;;;;27.44;32.62;93554.09;4951344;28;20051;-79
2022/08/17 14:47:45;;;;;;;4.68;4.03;;;;;;;27.49;32.12;93550.84;4951500;28;20035;-79
2022/08/17 14:50:18;;;;;;;4.05;3.55;;;;;;;27.60;31.55;93595.09;4932100;28;20041;-79
2022/08/17 14:52:44;;;;;;;4.65;3.78;;;;;;;27.64;32.26;93584.84;4950389;28;20937;-80
2022/08/17 14:55:11;;;;;;;4.32;3.92;;;;;;;27.99;32.95;93600.38;4940395;28;20358;-80
2022/08/17 14:57:39;;;;;;;5.88;3.33;;;;;;;27.86;32.21;93564.03;4949814;28;20699;-83
2022/08/17 15:00:06;;;;;;;4.72;4.22;;;;;;;28.26;33.85;93586.41;4950702;28;20360;-81
2022/08/17 15:02:44;;;;;;;3.63;3.33;;;;;;;27.93;31.87;93602.09;4947112;28;20517;-82
2022/08/17 15:05:09;;;;;;;6.15;3.00;;;;;;;27.95;32.15;93588.00;4950093;28;20157;-82
2022/08/17 15:07:35;;;;;;;3.35;3.05;;;;;;;28.04;32.37;93572.53;4951129;28;20031;-82
2022/08/17 15:10:01;;;;;;;3.22;2.88;;;;;;;28.12;33.38;93598.50;4954747;28;20081;-82
2022/08/17 15:12:26;;;;;;;7.72;3.08;;;;;;;27.84;32.15;93582.81;4955941;28;20030;-81
2022/08/17 15:14:51;;;;;;;4.82;3.13;;;;;;;28.04;31.72;93601.81;4956696;28;20029;-80
2022/08/17 15:17:17;;;;;;;3.85;2.50;;;;;;;27.75;32.42;93582.63;4966876;28;20034;-81
2022/08/17 15:19:43;;;;;;;4.93;3.40;;;;;;;27.55;31.93;93560.09;4951209;28;20089;-81
2022/08/17 15:22:22;;;;;;;3.13;2.70;;;;;;;28.02;32.99;93602.25;4940714;28;20039;-81
2022/08/17 15:24:48;;;;;;;4.22;2.78;;;;;;;27.72;31.90;93586.22;4952714;28;20034;-80
2022/08/17 15:27:13;;;;;;;3.25;2.42;;;;;;;27.81;31.58;93600.06;4941474;28;20315;-81
2022/08/17 15:29:39;;;;;;;3.35;2.10;;;;;;;27.55;31.41;93576.47;4953520;28;20035;-81
2022/08/17 15:32:04;;;;;;;3.25;2.28;;;;;;;27.71;32.28;93590.16;4950751;28;20602;-81
2022/08/17 15:34:30;;;;;;;2.72;2.40;;;;;;;27.78;31.89;93579.81;4953660;28;20034;-80
2022/08/17 15:36:55;;;;;;;5.10;2.67;;;;;;;27.64;31.83;93546.63;4953893;28;20501;-82
2022/08/17 15:39:20;;;;;;;3.28;2.03;;;;;;;28.03;31.55;93579.19;4935801;28;20030;-80
2022/08/17 15:41:46;;;;;;;2.63;2.30;;;;;;;27.94;31.50;93606.34;4956913;28;20235;-80
2022/08/17 15:44:11;;;;;;;2.83;1.85;;;;;;;27.69;31.58;93560.53;4956002;28;20085;-80
2022/08/17 15:46:37;;;;;;;2.55;2.15;;;;;;;27.65;31.96;93553.63;4964437;28;20386;-79
2022/08/17 15:49:07;;;;;;;3.47;2.13;;;;;;;27.60;30.70;93563.09;4954160;28;20023;-81
2022/08/17 15:51:34;;;;;;;4.00;2.25;;;;;;;27.66;29.97;93598.88;4965066;28;20038;-81
2022/08/17 15:54:02;;;;;;;3.30;1.75;;;;;;;27.81;30.34;93605.53;4954097;28;20054;-79
2022/08/17 15:56:30;;;;;;;3.75;2.20;;;;;;;28.03;30.21;93605.75;4956942;28;20039;-81
2022/08/17 15:58:56;;;;;;;2.90;1.88;;;;;;;28.10;29.78;93592.72;4941017;28;20029;-81
2022/08/17 16:01:24;;;;;;;7.60;2.50;;;;;;;28.00;30.23;93562.88;4951632;28;20472;-80
2022/08/17 16:03:50;;;;;;;6.45;1.98;;;;;;;28.27;31.03;93598.13;4958707;28;20038;-80
2022/08/17 16:06:16;;;;;;;2.05;1.85;;;;;;;28.09;30.33;93591.13;4949060;28;20046;-80
2022/08/17 16:08:44;;;;;;;2.05;1.83;;;;;;;28.12;30.61;93587.56;4940280;28;20031;-80
2022/08/17 16:11:13;;;;;;;3.25;1.90;;;;;;;27.58;30.66;93537.41;4962930;28;21106;-81
2022/08/17 16:13:39;;;;;;;2.03;1.83;;;;;;;27.76;30.72;93598.63;4964232;28;20034;-81
2022/08/17 16:16:05;;;;;;;2.25;1.70;;;;;;;27.68;31.08;93607.38;4962319;28;20031;-80
2022/08/17 16:18:35;;;;;;;3.58;1.92;;;;;;;27.69;31.13;93603.47;4958652;28;20065;-81
2022/08/17 16:23:52;;;;;;;2.42;1.65;;;;;;;27.30;30.72;93605.13;4964859;28;20030;-81
2022/08/17 16:26:17;;;;;;;2.05;1.85;;;;;;;26.99;31.04;93579.25;4962732;28;20035;-79
2022/08/17 16:28:44;;;;;;;3.28;2.17;;;;;;;26.91;31.64;93578.66;4950401;28;20035;-80
2022/08/17 16:31:10;;;;;;;3.63;2.00;;;;;;;27.03;31.41;93612.75;4958803;28;20170;-80
2022/08/17 16:33:38;;;;;;;2.20;1.67;;;;;;;27.23;32.33;93613.47;4936875;28;20153;-80
2022/08/17 16:36:06;;;;;;;3.15;1.83;;;;;;;27.23;32.94;93599.81;4960833;28;20027;-80
2022/08/17 16:38:35;;;;;;;2.40;1.80;;;;;;;27.08;33.14;93604.06;4964136;28;20037;-80
2022/08/17 16:41:02;;;;;;;3.25;1.75;;;;;;;27.22;33.92;93613.91;4957775;28;20055;-78
2022/08/17 16:43:28;;;;;;;3.00;2.30;;;;;;;27.05;33.31;93623.22;4945691;28;20031;-81
2022/08/17 16:45:54;;;;;;;3.42;2.28;;;;;;;27.12;32.64;93614.91;4956512;28;20033;-81